Time;durP1;ratioP1;P1;durP2;ratioP2;P2;SDS_P1;SDS_P2;PMS_P1;PMS_P2;Temp;Humidity;BMP_temperature;BMP_pressure;BME280_temperature;BME280_humidity;BME280_pressure;Samples;Min_cycle;Max_cycle;Signal;HPM_P1;HPM_P2
2021/11/21 00:00:47;;;;;;;;;;;;;;;7.18;92.49;100903.19;4975254;28;20420;-72
2021/11/21 00:03:12;;;;;;;;;;;;;;;7.17;91.61;100903.97;4974815;28;19921;-74
2021/11/21 00:05:41;;;;;;;;;;;;;;;7.16;91.42;100906.47;4975164;28;19918;-72
2021/11/21 00:08:07;;;;;;;;;;;;;;;7.11;91.52;100904.50;4975300;28;19914;-74
2021/11/21 00:10:34;;;;;;;;;;;;;;;7.01;91.43;100907.34;4975561;28;19909;-71
2021/11/21 00:12:59;;;;;;;;;;;;;;;6.90;91.78;100908.38;4975145;28;19914;-68
2021/11/21 00:15:25;;;;;;;;;;;;;;;6.83;92.03;100909.72;4975416;28;19917;-68
2021/11/21 00:17:50;;;;;;;;;;;;;;;6.77;91.97;100912.78;4975118;28;19921;-72
2021/11/21 00:20:16;;;;;;;;;;;;;;;6.58;92.32;100912.47;4975258;28;19913;-70
2021/11/21 00:22:42;;;;;;;;;;;;;;;6.56;92.78;100906.41;4974910;28;19914;-74
2021/11/21 00:25:08;;;;;;;;;;;;;;;6.62;92.33;100906.75;4972712;28;19973;-72
2021/11/21 00:27:33;;;;;;;;;;;;;;;6.57;92.62;100903.91;4974880;28;20380;-72
2021/11/21 00:29:58;;;;;;;;;;;;;;;6.59;92.37;100899.78;4976233;28;19914;-73
2021/11/21 00:32:24;;;;;;;;;;;;;;;6.57;91.19;100897.91;4974820;28;20422;-71
2021/11/21 00:34:49;;;;;;;;;;;;;;;6.54;91.81;100902.84;4975328;28;19918;-72
2021/11/21 00:37:15;;;;;;;;;;;;;;;6.47;92.16;100904.16;4975079;28;19918;-72
2021/11/21 00:39:40;;;;;;;;;;;;;;;6.35;92.59;100891.47;4974827;28;20412;-72
2021/11/21 00:42:06;;;;;;;;;;;;;;;6.22;92.88;100894.06;4972471;28;19964;-74
2021/11/21 00:44:31;;;;;;;;;;;;;;;6.20;93.00;100895.69;4974484;28;19922;-72
2021/11/21 00:46:56;;;;;;;;;;;;;;;6.17;93.38;100898.03;4973353;28;20444;-73
2021/11/21 00:49:21;;;;;;;;;;;;;;;6.09;93.35;100898.47;4972033;28;19919;-71
2021/11/21 00:51:49;;;;;;;;;;;;;;;6.01;93.72;100888.50;4974371;28;19921;-72
2021/11/21 00:57:02;;;;;;;;;;;;;;;5.84;94.70;100896.00;4971882;28;19921;-74
2021/11/21 00:59:28;;;;;;;;;;;;;;;5.65;95.77;100888.84;4971494;28;20052;-70
2021/11/21 01:01:53;;;;;;;;;;;;;;;5.69;96.19;100887.38;4972019;28;19914;-73
2021/11/21 01:04:19;;;;;;;;;;;;;;;5.69;96.08;100879.69;4968576;28;19918;-70
2021/11/21 01:06:45;;;;;;;;;;;;;;;5.57;95.86;100880.66;4967539;28;19922;-71
2021/11/21 01:09:10;;;;;;;;;;;;;;;5.53;96.27;100875.25;4970793;28;19918;-72
2021/11/21 01:11:36;;;;;;;;;;;;;;;5.46;96.82;100882.53;4971007;28;19920;-69
2021/11/21 01:14:01;;;;;;;;;;;;;;;5.41;97.00;100876.25;4967960;28;19918;-69
2021/11/21 01:16:27;;;;;;;;;;;;;;;5.54;96.81;100875.34;4968808;28;19937;-68
2021/11/21 01:18:52;;;;;;;;;;;;;;;5.64;96.80;100871.69;4972898;28;19914;-70
2021/11/21 01:21:18;;;;;;;;;;;;;;;5.75;96.38;100870.69;4983821;28;19952;-71
2021/11/21 01:23:43;;;;;;;;;;;;;;;5.80;96.24;100870.97;4969917;28;20392;-72
2021/11/21 01:26:08;;;;;;;;;;;;;;;5.81;95.97;100872.75;4970114;28;20385;-72
2021/11/21 01:28:34;;;;;;;;;;;;;;;5.81;95.85;100870.19;4971205;28;20038;-69
2021/11/21 01:30:59;;;;;;;;;;;;;;;5.69;96.59;100879.69;4971500;28;20408;-71
2021/11/21 01:33:25;;;;;;;;;;;;;;;5.61;97.05;100871.50;4972050;28;19922;-72
2021/11/21 01:35:50;;;;;;;;;;;;;;;5.45;97.80;100873.06;4973810;28;19916;-70
2021/11/21 01:38:15;;;;;;;;;;;;;;;5.47;98.11;100873.16;4973620;28;19917;-73
2021/11/21 01:40:41;;;;;;;;;;;;;;;5.33;98.11;100873.19;4958252;28;19958;-73
2021/11/21 01:43:07;;;;;;;;;;;;;;;5.25;98.08;100882.03;4953179;28;19918;-72
2021/11/21 01:45:33;;;;;;;;;;;;;;;5.17;98.38;100875.53;4953207;28;19931;-73
2021/11/21 01:47:59;;;;;;;;;;;;;;;5.10;98.61;100881.06;4953358;28;19915;-70
2021/11/21 01:50:27;;;;;;;;;;;;;;;5.20;98.50;100878.28;4953518;28;20393;-74
2021/11/21 01:52:53;;;;;;;;;;;;;;;5.30;97.88;100883.22;4953497;28;19960;-73
2021/11/21 01:55:18;;;;;;;;;;;;;;;5.35;97.46;100879.28;4990420;28;19965;-73
2021/11/21 01:57:45;;;;;;;;;;;;;;;5.46;96.82;100882.53;4957790;28;19985;-73
2021/11/21 02:00:11;;;;;;;;;;;;;;;5.53;97.01;100882.94;4968077;28;20017;-72
2021/11/21 02:02:36;;;;;;;;;;;;;;;5.55;96.39;100882.25;4962325;28;20049;-75
2021/11/21 02:05:02;;;;;;;;;;;;;;;5.60;96.22;100878.28;4964956;28;19914;-72
2021/11/21 02:07:30;;;;;;;;;;;;;;;5.55;95.37;100882.25;4965001;28;20013;-73
2021/11/21 02:09:55;;;;;;;;;;;;;;;5.41;96.53;100883.00;4959317;28;19914;-71
2021/11/21 02:12:21;;;;;;;;;;;;;;;5.33;96.76;100885.09;4972240;28;19969;-75
2021/11/21 02:14:46;;;;;;;;;;;;;;;5.33;97.63;100885.09;4972574;28;20395;-71
2021/11/21 02:17:11;;;;;;;;;;;;;;;5.42;97.46;100880.59;4972162;28;19989;-72
2021/11/21 02:19:36;;;;;;;;;;;;;;;5.45;96.87;100874.75;4972801;28;20357;-72
2021/11/21 02:22:02;;;;;;;;;;;;;;;5.40;97.32;100877.03;4971502;28;19918;-73
2021/11/21 02:24:27;;;;;;;;;;;;;;;5.40;96.51;100876.16;4969664;28;19922;-72
2021/11/21 02:26:54;;;;;;;;;;;;;;;5.41;96.89;100866.00;4968373;28;19941;-73
2021/11/21 02:29:19;;;;;;;;;;;;;;;5.46;96.92;100871.44;4953074;28;19922;-71
2021/11/21 02:31:44;;;;;;;;;;;;;;;5.55;96.17;100873.69;4953579;28;20052;-73
2021/11/21 02:34:10;;;;;;;;;;;;;;;5.61;95.12;100881.75;4960616;28;19918;-73
2021/11/21 02:36:35;;;;;;;;;;;;;;;5.54;95.07;100870.22;4972931;28;19921;-75
2021/11/21 02:39:01;;;;;;;;;;;;;;;5.48;96.01;100863.06;4972550;28;19914;-72
2021/11/21 02:41:27;;;;;;;;;;;;;;;5.44;94.56;100863.63;4972867;28;19914;-74
2021/11/21 02:43:53;;;;;;;;;;;;;;;5.31;95.67;100869.63;4973136;28;19922;-73
2021/11/21 02:46:19;;;;;;;;;;;;;;;5.36;96.52;100867.38;4972869;28;20328;-73
2021/11/21 02:48:44;;;;;;;;;;;;;;;5.43;96.25;100858.41;4972830;28;19948;-74
2021/11/21 02:51:11;;;;;;;;;;;;;;;5.41;96.12;100860.88;4972842;28;19960;-74
2021/11/21 02:53:37;;;;;;;;;;;;;;;5.39;96.14;100864.13;4973225;28;20005;-73
2021/11/21 02:56:04;;;;;;;;;;;;;;;5.39;96.26;100853.88;4972484;28;19914;-73
2021/11/21 02:58:32;;;;;;;;;;;;;;;5.41;95.85;100845.50;4969420;28;20005;-72
2021/11/21 03:00:58;;;;;;;;;;;;;;;5.41;95.69;100850.63;4953461;28;19914;-74
2021/11/21 03:03:23;;;;;;;;;;;;;;;5.41;95.68;100857.41;4953155;28;19918;-73
2021/11/21 03:05:49;;;;;;;;;;;;;;;5.40;94.79;100853.97;4953449;28;20136;-72
2021/11/21 03:08:14;;;;;;;;;;;;;;;5.32;94.59;100845.81;4953563;28;19953;-71
2021/11/21 03:10:40;;;;;;;;;;;;;;;5.25;95.44;100848.75;4952955;29;19914;-71
2021/11/21 03:13:06;;;;;;;;;;;;;;;5.26;95.98;100849.63;4953355;28;20273;-70
2021/11/21 03:15:33;;;;;;;;;;;;;;;5.25;96.08;100855.56;4953393;28;19949;-72
2021/11/21 03:17:58;;;;;;;;;;;;;;;5.28;95.70;100850.63;4954633;28;20296;-72
2021/11/21 03:20:28;;;;;;;;;;;;;;;5.30;95.06;100849.94;4956768;28;19914;-71
2021/11/21 03:22:54;;;;;;;;;;;;;;;5.13;94.67;100846.28;4957126;28;19921;-72
2021/11/21 03:25:20;;;;;;;;;;;;;;;5.04;94.68;100842.25;4956823;28;20304;-73
2021/11/21 03:27:45;;;;;;;;;;;;;;;5.09;94.77;100843.44;4956949;28;19965;-72
2021/11/21 03:30:12;;;;;;;;;;;;;;;5.11;95.16;100845.31;4956866;28;19915;-72
2021/11/21 03:32:38;;;;;;;;;;;;;;;5.13;95.12;100836.03;4956834;28;19921;-73
2021/11/21 03:35:04;;;;;;;;;;;;;;;5.15;94.79;100837.03;4956588;28;20353;-71
2021/11/21 03:37:29;;;;;;;;;;;;;;;5.17;94.68;100837.13;4971929;28;19915;-69
2021/11/21 03:39:54;;;;;;;;;;;;;;;4.94;93.97;100844.19;4956470;28;20433;-70
2021/11/21 03:42:20;;;;;;;;;;;;;;;4.91;93.26;100838.00;4956715;29;20340;-71
2021/11/21 03:44:45;;;;;;;;;;;;;;;4.89;93.46;100840.47;4956423;28;20009;-70
2021/11/21 03:47:11;;;;;;;;;;;;;;;4.91;94.03;100841.47;4956660;28;19964;-73
2021/11/21 03:49:36;;;;;;;;;;;;;;;4.88;94.62;100842.94;4956946;28;19950;-70
2021/11/21 03:52:02;;;;;;;;;;;;;;;4.92;94.12;100838.13;4956662;28;19977;-70
2021/11/21 03:54:27;;;;;;;;;;;;;;;4.90;92.78;100837.13;4957971;28;20349;-72
2021/11/21 03:56:53;;;;;;;;;;;;;;;4.76;92.86;100841.34;4963555;28;20396;-72
2021/11/21 03:59:19;;;;;;;;;;;;;;;4.68;94.41;100839.94;4970200;28;19918;-72
2021/11/21 04:01:45;;;;;;;;;;;;;;;4.65;95.05;100845.72;4955728;28;19914;-72
2021/11/21 04:04:12;;;;;;;;;;;;;;;4.68;95.48;100845.03;4955582;28;20603;-73
2021/11/21 04:06:37;;;;;;;;;;;;;;;4.74;95.04;100849.69;4955337;28;19925;-75
2021/11/21 04:09:03;;;;;;;;;;;;;;;4.75;94.87;100852.34;4955417;28;20559;-71
2021/11/21 04:11:30;;;;;;;;;;;;;;;4.79;92.83;100850.88;4955748;28;19978;-73
2021/11/21 04:13:55;;;;;;;;;;;;;;;4.77;93.69;100849.88;4955126;28;19934;-71
2021/11/21 04:16:21;;;;;;;;;;;;;;;4.73;94.09;100853.03;4955314;28;19915;-72
2021/11/21 04:18:46;;;;;;;;;;;;;;;4.65;94.53;100857.63;4955295;28;19914;-70
2021/11/21 04:21:11;;;;;;;;;;;;;;;4.61;94.86;100859.09;4955227;28;19921;-70
2021/11/21 04:23:36;;;;;;;;;;;;;;;4.57;95.20;100859.66;4953650;28;20372;-71
2021/11/21 04:26:02;;;;;;;;;;;;;;;4.58;94.96;100860.56;4954823;28;19926;-72
2021/11/21 04:28:28;;;;;;;;;;;;;;;4.57;95.16;100875.00;4954258;28;19922;-70
2021/11/21 04:30:54;;;;;;;;;;;;;;;4.60;94.81;100867.56;4954361;28;20012;-75
2021/11/21 04:33:23;;;;;;;;;;;;;;;4.43;93.12;100874.06;4955163;28;20748;-72
2021/11/21 04:35:49;;;;;;;;;;;;;;;4.27;94.81;100872.13;4955054;28;20309;-73
2021/11/21 04:38:15;;;;;;;;;;;;;;;4.28;95.85;100871.34;4955231;28;19921;-71
2021/11/21 04:40:40;;;;;;;;;;;;;;;4.30;96.23;100869.81;4954683;28;20420;-70
2021/11/21 04:43:06;;;;;;;;;;;;;;;4.38;96.08;100872.88;4955243;28;19921;-70
2021/11/21 04:45:31;;;;;;;;;;;;;;;4.47;95.46;100875.16;4954958;28;20024;-71
2021/11/21 04:47:56;;;;;;;;;;;;;;;4.42;93.97;100871.41;4969793;28;20365;-69
2021/11/21 04:50:21;;;;;;;;;;;;;;;4.32;94.38;100877.56;4954642;28;19915;-69
2021/11/21 04:52:47;;;;;;;;;;;;;;;4.27;95.26;100876.38;4954654;28;19918;-72
2021/11/21 04:55:12;;;;;;;;;;;;;;;4.30;95.40;100877.47;4954801;28;19945;-72
2021/11/21 04:57:40;;;;;;;;;;;;;;;4.34;94.48;100878.56;4953576;28;19973;-69
2021/11/21 05:00:07;;;;;;;;;;;;;;;4.26;94.36;100880.59;4954511;28;19937;-71
2021/11/21 05:02:32;;;;;;;;;;;;;;;4.31;95.27;100878.34;4954543;28;19942;-71
2021/11/21 05:04:58;;;;;;;;;;;;;;;4.35;94.86;100870.13;4954193;28;19964;-70
2021/11/21 05:07:23;;;;;;;;;;;;;;;4.36;93.66;100877.88;4954184;28;19934;-70
2021/11/21 05:09:48;;;;;;;;;;;;;;;4.41;93.82;100884.97;4954234;28;20373;-72
2021/11/21 05:12:14;;;;;;;;;;;;;;;4.32;92.85;100885.25;4954995;28;19938;-71
2021/11/21 05:14:39;;;;;;;;;;;;;;;4.30;93.19;100876.56;4955244;28;19911;-71
2021/11/21 05:17:04;;;;;;;;;;;;;;;4.36;94.20;100885.56;4954986;28;19914;-70
2021/11/21 05:19:30;;;;;;;;;;;;;;;4.37;94.05;100873.66;4955712;28;19969;-75
2021/11/21 05:21:55;;;;;;;;;;;;;;;4.40;92.96;100875.53;4959832;28;20407;-74
2021/11/21 05:24:24;;;;;;;;;;;;;;;4.37;92.29;100874.56;4954806;28;19918;-73
2021/11/21 05:26:49;;;;;;;;;;;;;;;4.37;91.92;100876.22;4954263;28;19914;-73
2021/11/21 05:29:15;;;;;;;;;;;;;;;4.24;92.31;100879.59;4954227;28;20069;-72
2021/11/21 05:31:40;;;;;;;;;;;;;;;4.20;92.77;100878.50;4969090;28;19950;-73
2021/11/21 05:34:05;;;;;;;;;;;;;;;4.25;92.61;100877.91;4954634;28;20008;-72
2021/11/21 05:36:31;;;;;;;;;;;;;;;4.24;92.46;100881.25;4953716;28;20512;-72
2021/11/21 05:38:56;;;;;;;;;;;;;;;4.28;92.18;100873.91;4954205;28;19914;-70
2021/11/21 05:41:21;;;;;;;;;;;;;;;4.33;92.12;100876.78;4953707;28;20420;-72
2021/11/21 05:43:47;;;;;;;;;;;;;;;4.35;92.12;100878.66;4968717;28;19930;-70
2021/11/21 05:46:12;;;;;;;;;;;;;;;4.29;92.27;100870.56;4954208;28;19918;-70
2021/11/21 05:48:38;;;;;;;;;;;;;;;4.31;93.47;100874.13;4954727;28;20005;-72
2021/11/21 05:51:03;;;;;;;;;;;;;;;4.13;94.41;100870.31;4954418;28;20368;-72
2021/11/21 05:53:28;;;;;;;;;;;;;;;3.98;95.31;100877.78;4954370;28;19919;-70
2021/11/21 05:55:54;;;;;;;;;;;;;;;3.73;96.55;100873.50;4954119;28;19914;-69
2021/11/21 05:58:22;;;;;;;;;;;;;;;3.58;97.74;100880.06;4954917;28;19918;-71
2021/11/21 06:00:48;;;;;;;;;;;;;;;3.50;98.21;100889.72;4953957;28;19918;-68
2021/11/21 06:03:13;;;;;;;;;;;;;;;3.50;98.75;100893.19;4954076;28;19958;-68
2021/11/21 06:05:39;;;;;;;;;;;;;;;3.46;98.94;100890.28;4963191;28;20376;-72
2021/11/21 06:08:06;;;;;;;;;;;;;;;3.28;100.00;100893.28;4972572;28;19918;-75
2021/11/21 06:10:31;;;;;;;;;;;;;;;3.26;100.00;100891.41;4973487;28;19921;-73
2021/11/21 06:12:56;;;;;;;;;;;;;;;3.34;100.00;100893.72;4954121;28;19918;-72
2021/11/21 06:15:22;;;;;;;;;;;;;;;3.31;100.00;100890.94;4954235;29;19915;-73
2021/11/21 06:17:47;;;;;;;;;;;;;;;3.54;100.00;100895.19;4954172;29;20303;-73
2021/11/21 06:20:13;;;;;;;;;;;;;;;3.64;100.00;100888.16;4953831;29;19921;-73
2021/11/21 06:22:38;;;;;;;;;;;;;;;3.54;100.00;100896.84;4969012;28;19940;-72
2021/11/21 06:25:05;;;;;;;;;;;;;;;3.43;100.00;100890.06;4954302;28;20278;-73
2021/11/21 06:27:30;;;;;;;;;;;;;;;3.47;100.00;100890.41;4968982;28;19918;-72
2021/11/21 06:29:55;;;;;;;;;;;;;;;3.45;100.00;100894.53;4954170;29;19914;-74
2021/11/21 06:32:21;;;;;;;;;;;;;;;3.59;100.00;100892.97;4968900;28;19957;-74
2021/11/21 06:34:46;;;;;;;;;;;;;;;3.57;100.00;100891.94;4953800;29;19921;-73
2021/11/21 06:37:11;;;;;;;;;;;;;;;3.62;100.00;100888.06;4953999;28;19914;-73
2021/11/21 06:39:39;;;;;;;;;;;;;;;3.63;100.00;100892.41;4968576;28;20023;-74
2021/11/21 06:42:05;;;;;;;;;;;;;;;3.78;100.00;100892.59;4953813;28;20459;-74
2021/11/21 06:44:30;;;;;;;;;;;;;;;4.09;100.00;100887.09;4953745;28;20001;-74
2021/11/21 06:46:56;;;;;;;;;;;;;;;4.37;100.00;100891.53;4968692;28;19914;-73
2021/11/21 06:49:22;;;;;;;;;;;;;;;4.61;100.00;100894.91;4953577;28;19914;-74
2021/11/21 06:51:47;;;;;;;;;;;;;;;4.83;100.00;100881.88;4953377;28;19919;-74
2021/11/21 06:54:14;;;;;;;;;;;;;;;5.05;100.00;100884.94;4953532;29;20464;-73
2021/11/21 06:56:39;;;;;;;;;;;;;;;5.22;100.00;100876.75;4983560;28;19915;-73
2021/11/21 06:59:04;;;;;;;;;;;;;;;5.26;100.00;100878.69;4953337;28;20304;-74
2021/11/21 07:01:30;;;;;;;;;;;;;;;5.47;100.00;100878.28;4953672;28;19922;-73
2021/11/21 07:03:55;;;;;;;;;;;;;;;5.54;99.92;100883.03;4953779;28;19918;-73
2021/11/21 07:06:31;;;;;;;;;;;;;;;5.76;100.00;100872.47;4953339;29;19918;-74
2021/11/21 07:08:56;;;;;;;;;;;;;;;5.92;99.16;100865.72;4968397;28;19969;-73
2021/11/21 07:11:22;;;;;;;;;;;;;;;5.65;99.89;100874.34;4953625;28;20370;-74
2021/11/21 07:13:48;;;;;;;;;;;;;;;5.58;100.00;100872.22;4953765;28;20017;-72
2021/11/21 07:16:13;;;;;;;;;;;;;;;5.85;100.00;100866.16;4953343;29;20359;-73
2021/11/21 07:18:38;;;;;;;;;;;;;;;6.02;99.79;100859.53;4953334;29;19926;-74
2021/11/21 07:21:04;;;;;;;;;;;;;;;6.21;99.25;100861.56;4953510;29;19965;-74
2021/11/21 07:23:29;;;;;;;;;;;;;;;6.43;98.38;100856.91;4953396;28;19914;-73
2021/11/21 07:25:54;;;;;;;;;;;;;;;6.61;97.35;100858.81;4953455;29;19950;-74
2021/11/21 07:28:20;;;;;;;;;;;;;;;6.57;97.75;100860.31;4953442;29;19972;-73
2021/11/21 07:30:45;;;;;;;;;;;;;;;6.34;98.36;100858.03;4957966;28;19918;-74
2021/11/21 07:33:10;;;;;;;;;;;;;;;6.38;99.09;100860.00;4960483;28;20356;-74
2021/11/21 07:35:36;;;;;;;;;;;;;;;6.62;98.05;100858.91;4953382;28;19921;-73
2021/11/21 07:38:01;;;;;;;;;;;;;;;6.86;98.30;100845.72;4953461;28;19915;-74
2021/11/21 07:40:27;;;;;;;;;;;;;;;6.95;97.54;100850.50;4955361;28;19918;-74
2021/11/21 07:42:52;;;;;;;;;;;;;;;6.98;98.16;100850.69;4972493;28;19920;-73
2021/11/21 07:45:17;;;;;;;;;;;;;;;6.91;98.15;100846.00;4957796;28;20399;-73
2021/11/21 07:47:44;;;;;;;;;;;;;;;6.96;99.33;100853.16;4953185;28;20007;-74
2021/11/21 07:50:10;;;;;;;;;;;;;;;7.17;98.63;100857.75;4953157;28;19921;-73
2021/11/21 07:52:35;;;;;;;;;;;;;;;7.28;97.92;100856.69;4969330;28;19914;-73
2021/11/21 07:55:01;;;;;;;;;;;;;;;7.40;98.09;100848.78;4953080;28;20376;-77
2021/11/21 07:57:26;;;;;;;;;;;;;;;7.41;98.24;100845.44;4953048;28;19914;-74
2021/11/21 07:59:51;;;;;;;;;;;;;;;7.49;98.62;100847.50;4953260;28;19950;-74
2021/11/21 08:02:17;;;;;;;;;;;;;;;7.60;98.31;100838.72;4952933;28;19915;-74
2021/11/21 08:04:42;;;;;;;;;;;;;;;7.61;99.23;100831.13;4978619;28;19918;-74
2021/11/21 08:07:08;;;;;;;;;;;;;;;7.66;98.46;100827.91;4975745;28;20004;-73
2021/11/21 08:09:34;;;;;;;;;;;;;;;7.71;98.12;100832.50;4971044;28;19918;-74
2021/11/21 08:11:59;;;;;;;;;;;;;;;7.84;98.23;100830.56;4969420;28;19976;-74
2021/11/21 08:14:24;;;;;;;;;;;;;;;7.90;98.47;100826.66;4970062;28;19919;-74
2021/11/21 08:16:50;;;;;;;;;;;;;;;8.05;97.69;100820.53;4969941;28;20391;-73
2021/11/21 08:19:15;;;;;;;;;;;;;;;8.11;97.27;100818.28;4966759;28;20069;-72
2021/11/21 08:21:40;;;;;;;;;;;;;;;8.26;98.05;100808.81;4973477;28;19914;-72
2021/11/21 08:24:09;;;;;;;;;;;;;;;8.43;97.52;100816.50;4965609;28;19937;-71
2021/11/21 08:26:34;;;;;;;;;;;;;;;8.53;96.84;100813.63;4964638;28;19985;-70
2021/11/21 08:29:00;;;;;;;;;;;;;;;8.62;95.85;100802.91;4969277;28;20451;-75
2021/11/21 08:31:25;;;;;;;;;;;;;;;8.66;95.84;100803.94;4972154;28;20304;-73
2021/11/21 08:33:51;;;;;;;;;;;;;;;8.72;95.82;100805.16;4967089;28;20006;-74
2021/11/21 08:36:16;;;;;;;;;;;;;;;8.80;95.58;100796.91;4970758;28;19922;-74
2021/11/21 08:38:41;;;;;;;;;;;;;;;8.90;95.76;100800.03;4956189;28;19966;-74
2021/11/21 08:41:07;;;;;;;;;;;;;;;8.98;95.74;100786.66;4956177;28;19973;-73
2021/11/21 08:43:32;;;;;;;;;;;;;;;9.13;94.69;100789.06;4955789;28;19923;-74
2021/11/21 08:45:57;;;;;;;;;;;;;;;9.30;94.79;100789.88;4971344;28;19976;-73
2021/11/21 08:48:22;;;;;;;;;;;;;;;9.45;93.97;100784.56;4966697;28;19955;-75
2021/11/21 08:50:48;;;;;;;;;;;;;;;9.61;93.27;100778.41;4971511;28;19918;-73
2021/11/21 08:53:14;;;;;;;;;;;;;;;9.52;93.46;100773.69;4974799;28;19914;-73
2021/11/21 08:55:39;;;;;;;;;;;;;;;9.64;93.03;100773.41;4975127;28;20424;-73
2021/11/21 08:58:05;;;;;;;;;;;;;;;9.55;93.03;100761.84;4968313;28;19922;-73
2021/11/21 09:00:30;;;;;;;;;;;;;;;9.73;93.17;100771.22;4955296;28;19957;-73
2021/11/21 09:02:56;;;;;;;;;;;;;;;9.92;92.67;100754.00;4955382;28;19966;-72
2021/11/21 09:05:23;;;;;;;;;;;;;;;10.09;91.75;100757.31;4955479;28;19945;-75
2021/11/21 09:07:48;;;;;;;;;;;;;;;10.27;91.70;100746.91;4955508;28;19914;-73
2021/11/21 09:10:15;;;;;;;;;;;;;;;10.34;92.54;100743.78;4955452;28;19914;-73
2021/11/21 09:12:41;;;;;;;;;;;;;;;10.42;93.24;100742.44;4955347;28;19914;-74
2021/11/21 09:15:14;;;;;;;;;;;;;;;10.57;92.08;100741.31;4954902;28;20400;-72
2021/11/21 09:17:40;;;;;;;;;;;;;;;10.68;90.03;100735.78;4955435;28;19915;-71
2021/11/21 09:20:05;;;;;;;;;;;;;;;10.77;89.30;100731.81;4955404;28;19914;-73
2021/11/21 09:22:31;;;;;;;;;;;;;;;10.88;89.01;100739.97;4955425;28;19914;-73
2021/11/21 09:24:56;;;;;;;;;;;;;;;11.03;89.31;100726.78;4955140;28;19922;-73
2021/11/21 09:27:22;;;;;;;;;;;;;;;11.14;88.61;100721.22;4955140;28;19914;-73
2021/11/21 09:29:47;;;;;;;;;;;;;;;11.13;86.96;100716.88;4955079;28;20385;-73
2021/11/21 09:32:12;;;;;;;;;;;;;;;11.19;86.44;100710.16;4955254;28;20308;-73
2021/11/21 09:34:38;;;;;;;;;;;;;;;11.27;86.33;100706.19;4955254;28;20017;-74
2021/11/21 09:37:05;;;;;;;;;;;;;;;11.39;87.64;100696.31;4954958;28;19914;-73
2021/11/21 09:39:30;;;;;;;;;;;;;;;11.51;87.20;100698.44;4955242;28;19937;-73
2021/11/21 09:41:55;;;;;;;;;;;;;;;11.61;86.64;100681.56;4954869;28;20369;-73
2021/11/21 09:44:23;;;;;;;;;;;;;;;11.72;85.86;100682.81;4954990;28;19996;-74
2021/11/21 09:46:49;;;;;;;;;;;;;;;11.84;84.96;100676.31;4955108;28;20009;-74
2021/11/21 09:49:16;;;;;;;;;;;;;;;11.94;82.78;100670.66;4954958;28;19968;-74
2021/11/21 09:51:41;;;;;;;;;;;;;;;12.04;82.07;100666.72;4954941;28;19917;-73
2021/11/21 09:54:07;;;;;;;;;;;;;;;12.12;81.99;100662.66;4954886;28;19911;-73
2021/11/21 09:56:32;;;;;;;;;;;;;;;12.24;81.44;100662.22;4954873;28;19910;-73
2021/11/21 09:58:57;;;;;;;;;;;;;;;12.16;81.89;100656.75;4954298;28;19921;-74
2021/11/21 10:01:35;;;;;;;;;;;;;;;12.28;81.07;100645.94;4954765;28;19921;-74
2021/11/21 10:04:01;;;;;;;;;;;;;;;12.34;79.77;100648.75;4954641;28;19966;-73
2021/11/21 10:06:30;;;;;;;;;;;;;;;12.36;79.81;100636.72;4954704;28;19910;-73
2021/11/21 10:08:56;;;;;;;;;;;;;;;12.48;79.65;100637.94;4954402;28;19922;-75
2021/11/21 10:11:21;;;;;;;;;;;;;;;12.60;79.73;100623.66;4954577;28;19914;-74
2021/11/21 10:13:48;;;;;;;;;;;;;;;12.68;79.09;100623.03;4954549;28;20277;-75
2021/11/21 10:16:16;;;;;;;;;;;;;;;12.77;77.80;100610.34;4954480;28;19997;-75
2021/11/21 10:18:45;;;;;;;;;;;;;;;12.89;77.53;100607.25;4954511;28;19914;-75
2021/11/21 10:21:10;;;;;;;;;;;;;;;13.01;79.18;100605.03;4953023;28;19914;-74
2021/11/21 10:23:36;;;;;;;;;;;;;;;13.09;78.48;100602.66;4953336;29;20262;-75
2021/11/21 10:26:01;;;;;;;;;;;;;;;13.16;77.83;100595.91;4954041;28;19945;-75
2021/11/21 10:28:31;;;;;;;;;;;;;;;13.22;78.13;100598.69;4953713;28;19918;-75
2021/11/21 10:30:59;;;;;;;;;;;;;;;13.17;75.05;100582.13;4954275;28;19945;-75
2021/11/21 10:33:29;;;;;;;;;;;;;;;13.23;74.08;100588.38;4954414;28;19915;-74
2021/11/21 10:35:59;;;;;;;;;;;;;;;13.26;74.66;100582.41;4954076;28;19954;-74
2021/11/21 10:38:32;;;;;;;;;;;;;;;13.38;73.94;100579.28;4954312;28;19921;-75
2021/11/21 10:40:57;;;;;;;;;;;;;;;13.44;73.03;100574.25;4953701;28;20040;-77
2021/11/21 10:43:23;;;;;;;;;;;;;;;13.52;73.13;100566.69;4954171;28;19961;-75
2021/11/21 10:45:49;;;;;;;;;;;;;;;13.31;73.19;100564.34;4954328;28;19941;-75
2021/11/21 10:48:22;;;;;;;;;;;;;;;13.27;74.03;100563.38;4953848;28;20389;-75
2021/11/21 10:50:50;;;;;;;;;;;;;;;13.45;73.47;100562.19;4954077;28;19942;-75
2021/11/21 10:53:15;;;;;;;;;;;;;;;13.63;72.90;100551.41;4953665;28;19914;-75
2021/11/21 10:55:41;;;;;;;;;;;;;;;13.67;73.23;100556.72;4954300;28;19914;-75
2021/11/21 10:58:10;;;;;;;;;;;;;;;13.82;73.49;100552.75;4953923;28;19914;-75
2021/11/21 11:00:36;;;;;;;;;;;;;;;13.86;72.60;100549.41;4953855;28;19914;-75
2021/11/21 11:03:01;;;;;;;;;;;;;;;13.77;72.35;100539.69;4952596;29;19941;-75
2021/11/21 11:05:27;;;;;;;;;;;;;;;13.81;72.21;100536.31;4953651;28;19962;-75
2021/11/21 11:07:53;;;;;;;;;;;;;;;13.88;74.39;100533.03;4953814;28;19915;-75
2021/11/21 11:10:30;;;;;;;;;;;;;;;13.92;72.94;100523.59;4953876;28;20013;-75
2021/11/21 11:12:57;;;;;;;;;;;;;;;14.06;72.20;100519.59;4952682;28;19921;-75
2021/11/21 11:15:24;;;;;;;;;;;;;;;13.88;72.18;100522.66;4953553;28;20372;-74
2021/11/21 11:17:49;;;;;;;;;;;;;;;14.02;71.37;100516.91;4953620;28;20285;-75
2021/11/21 11:20:16;;;;;;;;;;;;;;;14.06;71.26;100501.44;4953358;28;20094;-77
2021/11/21 11:22:41;;;;;;;;;;;;;;;13.98;72.40;100502.09;4967621;28;19961;-75
2021/11/21 11:25:08;;;;;;;;;;;;;;;14.16;70.25;100496.47;4953665;28;19957;-75
2021/11/21 11:27:45;;;;;;;;;;;;;;;14.06;71.78;100503.16;4953581;28;19911;-75
2021/11/21 11:30:11;;;;;;;;;;;;;;;14.31;70.06;100495.94;4953544;28;19915;-75
2021/11/21 11:32:37;;;;;;;;;;;;;;;14.39;69.72;100496.97;4952201;28;20020;-75
2021/11/21 11:35:26;;;;;;;;;;;;;;;14.46;69.70;100482.41;4953394;28;19981;-75
2021/11/21 11:37:55;;;;;;;;;;;;;;;14.51;68.64;100485.97;4953387;29;19914;-75
2021/11/21 11:40:30;;;;;;;;;;;;;;;14.59;68.88;100478.31;4956746;28;19914;-75
2021/11/21 11:43:00;;;;;;;;;;;;;;;14.51;69.58;100476.44;4957099;28;19914;-75
2021/11/21 11:45:42;;;;;;;;;;;;;;;14.32;69.95;100477.78;4973539;28;20484;-75
2021/11/21 11:48:25;;;;;;;;;;;;;;;14.37;70.76;100470.97;4974163;28;19914;-75
2021/11/21 11:50:51;;;;;;;;;;;;;;;14.44;69.94;100456.38;4974078;28;19964;-75
2021/11/21 11:53:33;;;;;;;;;;;;;;;14.44;70.51;100458.09;4974035;28;19914;-75
2021/11/21 11:56:12;;;;;;;;;;;;;;;14.45;70.11;100457.25;4957982;28;20025;-74
2021/11/21 11:58:48;;;;;;;;;;;;;;;14.42;70.38;100452.88;4974013;28;19921;-75
2021/11/21 12:01:33;;;;;;;;;;;;;;;14.44;69.41;100451.16;4973753;28;20373;-75
2021/11/21 12:03:59;;;;;;;;;;;;;;;14.53;69.54;100445.31;4973634;28;20044;-75
2021/11/21 12:06:48;;;;;;;;;;;;;;;14.56;70.04;100446.22;4973754;28;19914;-75
2021/11/21 12:09:16;;;;;;;;;;;;;;;14.63;70.02;100447.25;4973765;28;19914;-75
2021/11/21 12:11:50;;;;;;;;;;;;;;;14.66;69.43;100433.47;4973536;28;19977;-75
2021/11/21 12:14:27;;;;;;;;;;;;;;;14.73;70.34;100445.75;4973652;28;20380;-75
2021/11/21 12:17:03;;;;;;;;;;;;;;;14.74;70.38;100438.81;4961719;28;19921;-75
2021/11/21 12:19:41;;;;;;;;;;;;;;;14.76;70.92;100438.00;4956573;28;19976;-75
2021/11/21 12:22:22;;;;;;;;;;;;;;;14.79;69.60;100429.38;4961510;28;19914;-75
2021/11/21 12:24:47;;;;;;;;;;;;;;;14.79;69.51;100426.78;4963835;28;19953;-74
2021/11/21 12:27:18;;;;;;;;;;;;;;;14.76;70.68;100424.13;4970515;28;19945;-76
2021/11/21 12:29:44;;;;;;;;;;;;;;;14.80;70.03;100423.34;4967441;28;20381;-75
2021/11/21 12:32:21;;;;;;;;;;;;;;;14.78;70.71;100419.81;4956245;28;19921;-75
2021/11/21 12:34:49;;;;;;;;;;;;;;;14.77;69.88;100408.56;4955854;28;20388;-74
2021/11/21 12:37:19;;;;;;;;;;;;;;;14.77;70.16;100413.75;4966897;28;19964;-75
2021/11/21 12:39:53;;;;;;;;;;;;;;;14.69;69.33;100398.03;4966800;28;19925;-73
2021/11/21 12:42:23;;;;;;;;;;;;;;;14.70;69.20;100397.19;4966093;28;20001;-74